เทศบาลนครเชียงใหม่, ประเทศไทย

03:22 PM ICT วัน ตุลาคม 02, 2014 (GMT +0700)
ThaiWx Station | Change Station
CLOSE
Current Station
Personal Weather Stations
Location: Chiang Mai, Pa Daet
Elevation: 1007 ft
Nearby Weather Stations

Elev 1007 ft 18.77 °N, 98.97 °E | Updated 1 minute ago

Scattered Clouds
มีเมฆคลุมเป็นบางส่วน
91.8 ฟาเรนไฮน์
Feels Like 100 ฟาเรนไฮน์
N
1.8
ลม ความผันแปร ลม from ทางทิศตะวันออกและทิศตะวันออกเฉียงเหนือ
Gusts 5.8 mph

วันนี้
High -- | Low -- ฟาเรนไฮน์
--% Chance of Precip.
Yesterday
High -- | Low -- ฟาเรนไฮน์
Precip. -- นิ้ว
6:14 AM 6:12 PM
ไตรมาสแรก, 56% visible
ความดัน 29.80 นิ้ว
ทัศนวิสัย 6.2 ไมล์
เมฆ มีเมฆคลุมเป็นบางส่วน 3500 ft
ดัชนีความร้อน 100 ฟาเรนไฮน์
อุณหภูมิที่อากาศอาจจับตัวเป็นหยาดน้ำค้าง 73 ฟาเรนไฮน์
ความชื้น 54%
Rainfall 0.00 นิ้ว
Snow Depth Not available.
UV 7 out of 12
Pollen Not available.
Air Quality Not available.
Flu Activity Not available.
METAR VTCC 020800Z 16005KT 9999 SCT035 33/19 Q1009 A2982 NOSIG

More Conditions Fewer Conditions

ความดัน 29.80 นิ้ว
ทัศนวิสัย 6.2 ไมล์
เมฆ มีเมฆคลุมเป็นบางส่วน 3500 ft
ดัชนีความร้อน 100 ฟาเรนไฮน์
อุณหภูมิที่อากาศอาจจับตัวเป็นหยาดน้ำค้าง 73 ฟาเรนไฮน์
ความชื้น 54%
Rainfall 0.00 นิ้ว
Snow Depth Not available.
UV 7 out of 12
Pollen Not available.
Air Quality Not available.
Flu Activity Not available.
METAR VTCC 020800Z 16005KT 9999 SCT035 33/19 Q1009 A2982 NOSIG

More Conditions Fewer Conditions

10-Day Weather Forecast

Almanac

ดาราศาสตร์

Oct. 02, 2014 Rise Set
Actual Time 6:14 AM ICT 6:12 PM ICT
Civil Twilight 5:52 AM ICT 6:33 PM ICT
Nautical Twilight 5:27 AM ICT 6:59 PM ICT
Astronomical Twilight 5:02 AM ICT 7:24 PM ICT
Moon 1:07 PM ICT ไม่มีพระจันทร์ลับขอบฟ้า
Length Of Visible Light 12h 40m
ความยาวของวัน
11h 57m
Tomorrow will be 1m 4s shorter.
ไตรมาสแรก, 56% of the Moon is Illuminated
วันนี้
ไตรมาสแรก
Oct 8
พระจันทร์เต็มดวง
Oct 15
ไตรมาสล่าสุด
Oct 23
New
Oct 30
ไตรมาสแรก

Yesterday's Extremes

Country Highs Country Lows

Community

WunderPhotos

Upload Photos

1,758,196 photos uploaded!

WunderBlogs® & News

By Dr. Jeff Masters
Director of Meteorology, Weather Underground
By Kari Strenfel
Meteorologist, Weather Underground
By Christopher C. Burt
Weather Historian, Weather Underground
October 2, 2014
October 2, 2014
October 2, 2014

Nearby

Snow Depth

Not available.

Earthquake Activity

City Distance Mag. Time & Date
No recent earthquake activity has been reported nearby.
Minimum magnitude displayed is 2.5.

Coastal Water Temperatures

สถานที่ อุณหภูมิ
No Stations Reporting

Nearby Weather Stations